ZSJRH FAPE-FAGG
Flight info
| Callsign | ZSJRH |
|---|---|
| Flight time | N/A |
| Altitude | 16000 |
| Route | OKRAV DCT GABGO |
| Aircraft | PC12/L-SDFGRWY/S |
Departure
| Time | 2026-04-26 19:32 |
|---|---|
| Airport | Chief Dawid Stuurman International Airport (FAPE) |
Arrival
| Time | N/A |
|---|---|
| Airport | George Airport (FAGG) |
| Time | Latitude | Longitude | Altitude | Speed | Heading |
|---|---|---|---|---|---|
| 2026-04-26 19:26 | -33.98327 | 25.61432 | 231 ft | 0 kts | 329° |
| 2026-04-26 19:28 | -33.98326 | 25.61431 | 231 ft | 1 kts | 330° |
| 2026-04-26 19:29 | -33.98333 | 25.61460 | 233 ft | 8 kts | 153° |
| 2026-04-26 19:29 | -33.98380 | 25.61504 | 231 ft | 12 kts | 108° |
| 2026-04-26 19:29 | -33.98328 | 25.61619 | 231 ft | 19 kts | 56° |
| 2026-04-26 19:29 | -33.98245 | 25.61784 | 232 ft | 15 kts | 55° |
| 2026-04-26 19:30 | -33.98255 | 25.61902 | 233 ft | 5 kts | 145° |
| 2026-04-26 19:30 | -33.98311 | 25.61944 | 232 ft | 15 kts | 144° |
| 2026-04-26 19:30 | -33.98406 | 25.61882 | 232 ft | 16 kts | 238° |
| 2026-04-26 19:30 | -33.98429 | 25.61842 | 232 ft | 0 kts | 236° |
| 2026-04-26 19:31 | -33.98483 | 25.61741 | 231 ft | 43 kts | 238° |
| 2026-04-26 19:31 | -33.98726 | 25.61268 | 235 ft | 86 kts | 238° |
| 2026-04-26 19:31 | -33.99044 | 25.60621 | 476 ft | 91 kts | 240° |
| 2026-04-26 19:31 | -33.99363 | 25.59940 | 795 ft | 109 kts | 240° |
| 2026-04-26 19:32 | -33.99753 | 25.59190 | 1489 ft | 99 kts | 239° |
| 2026-04-26 19:32 | -34.00061 | 25.58455 | 2089 ft | 99 kts | 261° |
| 2026-04-26 19:32 | -33.99999 | 25.57924 | 2499 ft | 97 kts | 287° |
| 2026-04-26 19:32 | -33.99520 | 25.57031 | 3313 ft | 91 kts | 289° |
| 2026-04-26 19:33 | -33.99307 | 25.56350 | 3890 ft | 83 kts | 279° |
| 2026-04-26 19:33 | -33.99177 | 25.55690 | 4405 ft | 81 kts | 275° |
| 2026-04-26 19:33 | -33.99107 | 25.55029 | 4936 ft | 77 kts | 274° |
| 2026-04-26 19:33 | -33.99070 | 25.54397 | 5408 ft | 76 kts | 276° |
| 2026-04-26 19:34 | -33.99053 | 25.53767 | 5878 ft | 75 kts | 277° |
| 2026-04-26 19:34 | -33.99044 | 25.53127 | 6356 ft | 76 kts | 278° |
| 2026-04-26 19:34 | -33.99045 | 25.52499 | 6820 ft | 77 kts | 278° |
| 2026-04-26 19:34 | -33.99045 | 25.51831 | 7266 ft | 76 kts | 279° |
| 2026-04-26 19:35 | -33.99053 | 25.51208 | 7776 ft | 73 kts | 280° |
| 2026-04-26 19:35 | -33.99057 | 25.50607 | 8275 ft | 71 kts | 281° |
| 2026-04-26 19:35 | -33.99060 | 25.50015 | 8755 ft | 70 kts | 282° |
| 2026-04-26 19:35 | -33.99063 | 25.49439 | 9250 ft | 68 kts | 283° |
| 2026-04-26 19:36 | -33.99067 | 25.48877 | 9744 ft | 66 kts | 284° |
| 2026-04-26 19:36 | -33.99068 | 25.48515 | 10050 ft | 65 kts | 285° |
| 2026-04-26 19:36 | -33.99073 | 25.47797 | 10639 ft | 63 kts | 286° |
| 2026-04-26 19:36 | -33.99074 | 25.47278 | 11099 ft | 62 kts | 286° |
| 2026-04-26 19:37 | -33.99078 | 25.46767 | 11580 ft | 60 kts | 287° |
| 2026-04-26 19:37 | -33.99080 | 25.46272 | 12074 ft | 59 kts | 287° |
| 2026-04-26 19:37 | -33.99086 | 25.45785 | 12561 ft | 57 kts | 288° |
| 2026-04-26 19:37 | -33.99091 | 25.45309 | 13034 ft | 56 kts | 288° |
| 2026-04-26 19:38 | -33.99093 | 25.44845 | 13483 ft | 55 kts | 289° |
| 2026-04-26 19:38 | -33.99095 | 25.44395 | 13918 ft | 53 kts | 289° |
| 2026-04-26 19:38 | -33.99096 | 25.44101 | 14199 ft | 52 kts | 290° |
| 2026-04-26 19:38 | -33.99095 | 25.43522 | 14728 ft | 51 kts | 289° |
| 2026-04-26 19:39 | -33.99098 | 25.43100 | 15140 ft | 50 kts | 289° |
| 2026-04-26 19:39 | -33.99098 | 25.42686 | 15558 ft | 49 kts | 289° |
| 2026-04-26 19:39 | -33.99098 | 25.42263 | 15904 ft | 58 kts | 290° |
| 2026-04-26 19:39 | -33.99045 | 25.41637 | 15960 ft | 92 kts | 288° |
| 2026-04-26 19:40 | -33.98991 | 25.40736 | 16073 ft | 122 kts | 284° |
| 2026-04-26 19:40 | -33.98970 | 25.39602 | 16100 ft | 150 kts | 281° |
| 2026-04-26 19:40 | -33.98968 | 25.38234 | 16062 ft | 175 kts | 279° |
| 2026-04-26 19:40 | -33.98997 | 25.36693 | 16022 ft | 192 kts | 278° |
| 2026-04-26 19:41 | -33.99041 | 25.35034 | 15985 ft | 203 kts | 277° |
| 2026-04-26 19:41 | -33.99081 | 25.33319 | 15963 ft | 210 kts | 277° |
| 2026-04-26 19:41 | -33.99110 | 25.31536 | 15967 ft | 215 kts | 278° |
| 2026-04-26 19:41 | -33.99118 | 25.30929 | 15964 ft | 216 kts | 278° |
| 2026-04-26 19:42 | -33.99141 | 25.27898 | 15941 ft | 220 kts | 278° |
| 2026-04-26 19:42 | -33.99147 | 25.26049 | 15945 ft | 222 kts | 278° |
| 2026-04-26 19:42 | -33.99151 | 25.24185 | 15942 ft | 223 kts | 278° |
| 2026-04-26 19:42 | -33.99156 | 25.22310 | 15940 ft | 224 kts | 278° |
| 2026-04-26 19:43 | -33.99162 | 25.20433 | 15938 ft | 224 kts | 278° |
| 2026-04-26 19:43 | -33.99168 | 25.18553 | 15937 ft | 225 kts | 278° |
| 2026-04-26 19:43 | -33.99174 | 25.16671 | 15937 ft | 225 kts | 278° |
| 2026-04-26 19:43 | -33.99182 | 25.14788 | 15937 ft | 225 kts | 278° |
| 2026-04-26 19:44 | -33.99191 | 25.12927 | 15939 ft | 225 kts | 278° |
| 2026-04-26 19:44 | -33.99196 | 25.11046 | 15938 ft | 224 kts | 278° |
| 2026-04-26 19:44 | -33.99197 | 25.09774 | 15938 ft | 224 kts | 278° |
| 2026-04-26 19:44 | -33.99199 | 25.07284 | 15938 ft | 224 kts | 278° |
| 2026-04-26 19:45 | -33.99199 | 25.05399 | 15938 ft | 224 kts | 278° |
| 2026-04-26 19:45 | -33.99199 | 25.04152 | 15938 ft | 225 kts | 278° |
| 2026-04-26 19:45 | -33.99200 | 25.01627 | 15947 ft | 225 kts | 278° |
| 2026-04-26 19:45 | -33.99202 | 24.99745 | 15959 ft | 225 kts | 278° |
| 2026-04-26 19:46 | -33.99205 | 24.97862 | 15955 ft | 224 kts | 278° |
| 2026-04-26 19:46 | -33.99208 | 24.96617 | 15952 ft | 224 kts | 278° |
| 2026-04-26 19:46 | -33.99213 | 24.94110 | 15946 ft | 223 kts | 279° |
| 2026-04-26 19:46 | -33.99206 | 24.92266 | 15946 ft | 223 kts | 279° |
| 2026-04-26 19:47 | -33.99197 | 24.90397 | 15940 ft | 223 kts | 279° |
| 2026-04-26 19:47 | -33.99194 | 24.89768 | 15938 ft | 222 kts | 279° |
| 2026-04-26 19:47 | -33.99189 | 24.87901 | 15940 ft | 222 kts | 279° |
| 2026-04-26 19:47 | -33.99187 | 24.84802 | 15941 ft | 222 kts | 279° |
| 2026-04-26 19:48 | -33.99188 | 24.82939 | 15944 ft | 222 kts | 279° |
| 2026-04-26 19:48 | -33.99189 | 24.81071 | 15948 ft | 223 kts | 279° |
| 2026-04-26 19:48 | -33.99189 | 24.79206 | 15948 ft | 223 kts | 279° |
| 2026-04-26 19:48 | -33.99188 | 24.77340 | 15948 ft | 223 kts | 279° |
| 2026-04-26 19:49 | -33.99188 | 24.75470 | 15950 ft | 223 kts | 279° |
| 2026-04-26 19:49 | -33.99187 | 24.73630 | 15936 ft | 222 kts | 279° |
| 2026-04-26 19:49 | -33.99186 | 24.71768 | 15933 ft | 222 kts | 279° |
| 2026-04-26 19:49 | -33.99184 | 24.69910 | 15933 ft | 221 kts | 279° |
| 2026-04-26 19:50 | -33.99180 | 24.68058 | 15928 ft | 221 kts | 279° |
| 2026-04-26 19:50 | -33.99176 | 24.66206 | 15938 ft | 221 kts | 279° |
| 2026-04-26 19:50 | -33.99171 | 24.64348 | 15944 ft | 222 kts | 279° |
| 2026-04-26 19:50 | -33.99167 | 24.62490 | 15958 ft | 222 kts | 279° |
| 2026-04-26 19:51 | -33.99121 | 24.60636 | 15966 ft | 219 kts | 282° |
| 2026-04-26 19:51 | -33.98882 | 24.58836 | 15965 ft | 215 kts | 289° |
| 2026-04-26 19:51 | -33.98631 | 24.57681 | 15967 ft | 215 kts | 290° |
| 2026-04-26 19:51 | -33.98074 | 24.55364 | 15968 ft | 215 kts | 291° |
| 2026-04-26 19:52 | -33.97636 | 24.53640 | 15968 ft | 215 kts | 291° |
| 2026-04-26 19:52 | -33.97199 | 24.51940 | 15960 ft | 215 kts | 291° |
| 2026-04-26 19:52 | -33.96758 | 24.50217 | 15957 ft | 215 kts | 291° |
| 2026-04-26 19:52 | -33.96323 | 24.48492 | 15958 ft | 215 kts | 291° |
| 2026-04-26 19:53 | -33.95895 | 24.46764 | 15966 ft | 215 kts | 291° |
| 2026-04-26 19:53 | -33.95471 | 24.45033 | 15965 ft | 216 kts | 291° |
| 2026-04-26 19:53 | -33.95050 | 24.43296 | 15960 ft | 216 kts | 291° |
| 2026-04-26 19:53 | -33.94631 | 24.41562 | 15959 ft | 216 kts | 291° |
| 2026-04-26 19:54 | -33.94213 | 24.39830 | 15953 ft | 215 kts | 291° |
| 2026-04-26 19:54 | -33.93795 | 24.38102 | 15985 ft | 215 kts | 291° |
| 2026-04-26 19:54 | -33.93378 | 24.36375 | 15951 ft | 214 kts | 291° |
| 2026-04-26 19:54 | -33.92958 | 24.34650 | 15936 ft | 214 kts | 291° |
| 2026-04-26 19:55 | -33.92540 | 24.32935 | 15939 ft | 213 kts | 291° |
| 2026-04-26 19:55 | -33.92122 | 24.31219 | 15940 ft | 213 kts | 291° |
| 2026-04-26 19:55 | -33.91710 | 24.29529 | 15930 ft | 213 kts | 291° |
| 2026-04-26 19:55 | -33.91294 | 24.27817 | 15949 ft | 213 kts | 291° |
| 2026-04-26 19:56 | -33.90878 | 24.26108 | 15984 ft | 214 kts | 291° |
| 2026-04-26 19:56 | -33.90460 | 24.24388 | 16002 ft | 215 kts | 291° |
| 2026-04-26 19:56 | -33.90039 | 24.22661 | 16018 ft | 215 kts | 291° |
| 2026-04-26 19:56 | -33.89615 | 24.20928 | 16014 ft | 216 kts | 291° |
| 2026-04-26 19:57 | -33.89187 | 24.19191 | 16007 ft | 216 kts | 291° |
| 2026-04-26 19:57 | -33.88761 | 24.17453 | 16014 ft | 217 kts | 291° |
| 2026-04-26 19:57 | -33.88478 | 24.16298 | 16012 ft | 217 kts | 290° |
| 2026-04-26 19:57 | -33.87908 | 24.13967 | 16012 ft | 217 kts | 290° |
| 2026-04-26 19:58 | -33.87481 | 24.12222 | 16017 ft | 217 kts | 291° |
| 2026-04-26 19:58 | -33.87054 | 24.10471 | 16004 ft | 218 kts | 290° |
| 2026-04-26 19:58 | -33.86629 | 24.08742 | 16013 ft | 218 kts | 290° |
| 2026-04-26 19:58 | -33.86197 | 24.06985 | 16023 ft | 219 kts | 291° |
| 2026-04-26 19:59 | -33.85766 | 24.05221 | 16019 ft | 220 kts | 291° |
| 2026-04-26 19:59 | -33.85336 | 24.03457 | 15995 ft | 220 kts | 291° |
| 2026-04-26 19:59 | -33.84905 | 24.01697 | 15977 ft | 219 kts | 291° |
| 2026-04-26 19:59 | -33.84474 | 23.99946 | 15969 ft | 218 kts | 291° |
| 2026-04-26 20:00 | -33.84189 | 23.98788 | 15973 ft | 218 kts | 291° |
| 2026-04-26 20:00 | -33.83614 | 23.96456 | 15961 ft | 217 kts | 291° |
| 2026-04-26 20:00 | -33.83185 | 23.94719 | 15951 ft | 216 kts | 291° |
| 2026-04-26 20:00 | -33.82758 | 23.92985 | 15962 ft | 216 kts | 291° |
| 2026-04-26 20:01 | -33.82331 | 23.91252 | 15975 ft | 216 kts | 291° |
| 2026-04-26 20:01 | -33.81901 | 23.89513 | 15980 ft | 217 kts | 291° |
| 2026-04-26 20:01 | -33.81616 | 23.88365 | 15971 ft | 217 kts | 291° |
| 2026-04-26 20:01 | -33.81046 | 23.86063 | 15980 ft | 217 kts | 291° |
| 2026-04-26 20:02 | -33.80616 | 23.84330 | 15977 ft | 217 kts | 291° |
| 2026-04-26 20:02 | -33.80185 | 23.82590 | 15956 ft | 216 kts | 291° |
| 2026-04-26 20:02 | -33.79757 | 23.80860 | 15942 ft | 215 kts | 291° |
| 2026-04-26 20:02 | -33.79613 | 23.80275 | 15941 ft | 215 kts | 291° |
| 2026-04-26 20:03 | -33.78902 | 23.77430 | 15921 ft | 213 kts | 291° |
| 2026-04-26 20:03 | -33.78621 | 23.76298 | 15936 ft | 213 kts | 291° |
| 2026-04-26 20:03 | -33.78055 | 23.74016 | 15986 ft | 214 kts | 290° |
| 2026-04-26 20:03 | -33.77624 | 23.72296 | 15991 ft | 216 kts | 290° |
| 2026-04-26 20:04 | -33.77337 | 23.71148 | 15994 ft | 217 kts | 290° |
| 2026-04-26 20:04 | -33.76759 | 23.68839 | 15994 ft | 218 kts | 290° |
| 2026-04-26 20:04 | -33.76464 | 23.67655 | 16008 ft | 219 kts | 290° |
| 2026-04-26 20:04 | -33.75885 | 23.65328 | 16013 ft | 220 kts | 290° |
| 2026-04-26 20:05 | -33.75589 | 23.64135 | 16001 ft | 220 kts | 290° |
| 2026-04-26 20:05 | -33.75012 | 23.61804 | 16018 ft | 219 kts | 291° |
| 2026-04-26 20:05 | -33.74718 | 23.60620 | 16026 ft | 219 kts | 291° |
| 2026-04-26 20:05 | -33.74134 | 23.58287 | 16018 ft | 220 kts | 290° |
| 2026-04-26 20:06 | -33.73842 | 23.57118 | 16010 ft | 220 kts | 290° |
| 2026-04-26 20:06 | -33.73252 | 23.54762 | 16010 ft | 220 kts | 291° |
| 2026-04-26 20:06 | -33.72958 | 23.53593 | 16009 ft | 221 kts | 290° |
| 2026-04-26 20:06 | -33.72365 | 23.51226 | 16013 ft | 221 kts | 291° |
| 2026-04-26 20:07 | -33.72071 | 23.50057 | 15991 ft | 221 kts | 291° |
| 2026-04-26 20:07 | -33.71626 | 23.48284 | 16002 ft | 221 kts | 290° |
| 2026-04-26 20:07 | -33.71181 | 23.46516 | 15997 ft | 221 kts | 291° |
| 2026-04-26 20:07 | -33.70586 | 23.44156 | 15962 ft | 220 kts | 291° |
| 2026-04-26 20:08 | -33.70293 | 23.42991 | 15945 ft | 219 kts | 290° |
| 2026-04-26 20:08 | -33.69845 | 23.41228 | 15992 ft | 222 kts | 290° |
| 2026-04-26 20:08 | -33.69390 | 23.39445 | 15960 ft | 223 kts | 289° |
| 2026-04-26 20:08 | -33.68943 | 23.37685 | 15970 ft | 224 kts | 289° |
| 2026-04-26 20:09 | -33.68492 | 23.35893 | 15990 ft | 224 kts | 289° |
| 2026-04-26 20:09 | -33.68043 | 23.34099 | 15995 ft | 224 kts | 289° |
| 2026-04-26 20:09 | -33.67595 | 23.32302 | 16001 ft | 225 kts | 289° |
| 2026-04-26 20:09 | -33.67154 | 23.30507 | 15996 ft | 224 kts | 289° |
| 2026-04-26 20:10 | -33.66975 | 23.28638 | 15964 ft | 232 kts | 271° |
| 2026-04-26 20:10 | -33.67571 | 23.26773 | 15961 ft | 246 kts | 252° |
| 2026-04-26 20:10 | -33.68391 | 23.24977 | 15960 ft | 244 kts | 254° |
| 2026-04-26 20:10 | -33.69129 | 23.23151 | 15976 ft | 242 kts | 256° |
| 2026-04-26 20:11 | -33.69626 | 23.21800 | 15979 ft | 242 kts | 257° |